Time;durP1;ratioP1;P1;durP2;ratioP2;P2;SDS_P1;SDS_P2;PMS_P1;PMS_P2;Temp;Humidity;BMP_temperature;BMP_pressure;BME280_temperature;BME280_humidity;BME280_pressure;Samples;Min_cycle;Max_cycle;Signal;HPM_P1;HPM_P2
2023/05/09 00:00:31;;;;;;;;;;;;;;;14.76;87.26;101716.72;5033322;28;20132;-82
2023/05/09 00:02:57;;;;;;;;;;;;;;;14.75;88.49;101711.41;5043961;28;19932;-82
2023/05/09 00:05:22;;;;;;;;;;;;;;;14.73;88.10;101719.44;5036374;28;20267;-82
2023/05/09 00:07:48;;;;;;;;;;;;;;;14.74;87.62;101707.00;5036544;28;19921;-82
2023/05/09 00:10:13;;;;;;;;;;;;;;;14.75;88.20;101704.28;5043445;28;19932;-82
2023/05/09 00:12:39;;;;;;;;;;;;;;;14.75;88.81;101708.75;5047805;28;19925;-82
2023/05/09 00:15:07;;;;;;;;;;;;;;;14.75;89.21;101703.41;5033883;28;19960;-82
2023/05/09 00:17:32;;;;;;;;;;;;;;;14.74;88.65;101699.00;5045271;28;20031;-82
2023/05/09 00:20:00;;;;;;;;;;;;;;;14.76;88.42;101702.50;5047296;28;19957;-82
2023/05/09 00:22:25;;;;;;;;;;;;;;;14.77;86.55;101701.59;5050890;28;19917;-82
2023/05/09 00:24:51;;;;;;;;;;;;;;;14.78;88.48;101698.88;5030252;28;19924;-81
2023/05/09 00:27:16;;;;;;;;;;;;;;;14.77;88.13;101696.25;5053009;28;20279;-82
2023/05/09 00:29:42;;;;;;;;;;;;;;;14.76;87.80;101695.38;5050798;28;19916;-82
2023/05/09 00:32:09;;;;;;;;;;;;;;;14.71;88.41;101683.97;5041845;28;19975;-82
2023/05/09 00:34:34;;;;;;;;;;;;;;;14.72;88.58;101690.16;5042829;28;20462;-83
2023/05/09 00:37:00;;;;;;;;;;;;;;;14.70;88.39;101692.88;5052773;28;20000;-82
2023/05/09 00:39:26;;;;;;;;;;;;;;;14.70;88.65;101692.88;5046720;28;19921;-83
2023/05/09 00:41:51;;;;;;;;;;;;;;;14.71;86.90;101689.31;5032784;28;19921;-83
2023/05/09 00:44:17;;;;;;;;;;;;;;;14.68;88.70;101692.03;5052279;28;19913;-83
2023/05/09 00:46:43;;;;;;;;;;;;;;;14.68;88.32;101684.03;5041309;28;19925;-83
2023/05/09 00:49:09;;;;;;;;;;;;;;;14.71;87.00;101688.41;5066976;28;20042;-83
2023/05/09 00:51:35;;;;;;;;;;;;;;;14.70;89.76;101692.00;5052451;28;20018;-83
2023/05/09 00:54:00;;;;;;;;;;;;;;;14.75;91.31;101684.75;5045043;28;20402;-82
2023/05/09 00:56:26;;;;;;;;;;;;;;;14.79;89.57;101689.09;5052835;28;19921;-82
2023/05/09 00:58:51;;;;;;;;;;;;;;;14.80;90.28;101674.84;5053237;28;19932;-81
2023/05/09 01:01:17;;;;;;;;;;;;;;;14.80;88.71;101675.72;5032054;28;20384;-82
2023/05/09 01:03:43;;;;;;;;;;;;;;;14.82;87.30;101673.00;5052851;28;19948;-82
2023/05/09 01:06:16;;;;;;;;;;;;;;;14.81;88.35;101664.16;5052875;28;19925;-82
2023/05/09 01:08:55;;;;;;;;;;;;;;;14.82;88.20;101660.56;5051570;28;20409;-81
2023/05/09 01:11:23;;;;;;;;;;;;;;;14.80;87.27;101661.50;5031351;28;19921;-82
2023/05/09 01:13:58;;;;;;;;;;;;;;;14.77;87.78;101658.94;5042755;28;19917;-82
2023/05/09 01:16:26;;;;;;;;;;;;;;;14.71;88.04;101651.97;5046998;28;19923;-82
2023/05/09 01:19:01;;;;;;;;;;;;;;;14.68;88.05;101648.50;5049561;28;19917;-82
2023/05/09 01:21:32;;;;;;;;;;;;;;;14.66;87.80;101643.19;5058185;28;20038;-81
2023/05/09 01:23:57;;;;;;;;;;;;;;;14.63;88.04;101638.81;5050422;28;19920;-82
2023/05/09 01:26:35;;;;;;;;;;;;;;;14.59;88.06;101629.16;5022041;28;19925;-82
2023/05/09 01:29:19;;;;;;;;;;;;;;;14.57;87.95;101627.47;5049895;28;19916;-81
2023/05/09 01:31:45;;;;;;;;;;;;;;;14.55;88.36;101621.28;5050376;28;19916;-82
2023/05/09 01:34:13;;;;;;;;;;;;;;;14.55;88.12;101622.16;5033851;28;20340;-82
2023/05/09 01:36:40;;;;;;;;;;;;;;;14.52;89.15;101616.88;5042035;28;19921;-82
2023/05/09 01:39:06;;;;;;;;;;;;;;;14.52;90.63;101614.22;5046179;28;20024;-82
2023/05/09 01:41:35;;;;;;;;;;;;;;;14.49;89.58;101610.75;5022124;28;19921;-82
2023/05/09 01:44:02;;;;;;;;;;;;;;;14.49;89.79;101611.63;5025388;28;20307;-82
2023/05/09 01:46:28;;;;;;;;;;;;;;;14.50;88.77;101604.50;5048755;28;19968;-82
2023/05/09 01:48:54;;;;;;;;;;;;;;;14.51;88.81;101598.25;5027554;28;19925;-82
2023/05/09 01:51:21;;;;;;;;;;;;;;;14.50;88.62;101593.84;5051371;28;19966;-82
2023/05/09 01:53:48;;;;;;;;;;;;;;;14.49;88.41;101587.66;5043632;28;19921;-82
2023/05/09 01:56:14;;;;;;;;;;;;;;;14.47;88.42;101586.81;5046875;28;20430;-82
2023/05/09 01:58:41;;;;;;;;;;;;;;;14.43;88.62;101582.47;5047659;28;20015;-82
2023/05/09 02:01:07;;;;;;;;;;;;;;;14.41;88.29;101584.28;5032258;28;19917;-82
2023/05/09 02:03:34;;;;;;;;;;;;;;;14.42;87.99;101580.72;5050121;28;20295;-82
2023/05/09 02:06:02;;;;;;;;;;;;;;;14.43;88.20;101586.94;5047096;28;19920;-82
2023/05/09 02:08:28;;;;;;;;;;;;;;;14.43;88.51;101578.94;5027222;28;19940;-81
2023/05/09 02:10:53;;;;;;;;;;;;;;;14.40;87.75;101577.22;5022855;28;20380;-82
2023/05/09 02:13:19;;;;;;;;;;;;;;;14.36;88.39;101575.53;5039696;28;19923;-82
2023/05/09 02:15:45;;;;;;;;;;;;;;;14.35;88.45;101584.47;5026884;28;19940;-82
2023/05/09 02:18:11;;;;;;;;;;;;;;;14.31;88.98;101583.66;5050313;28;19920;-82
2023/05/09 02:20:37;;;;;;;;;;;;;;;14.28;89.21;101578.41;5042786;28;20283;-82
2023/05/09 02:23:02;;;;;;;;;;;;;;;14.26;88.98;101582.03;5050281;28;20023;-82
2023/05/09 02:25:28;;;;;;;;;;;;;;;14.23;88.82;101587.44;5050463;28;20516;-82
2023/05/09 02:27:55;;;;;;;;;;;;;;;14.20;88.67;101588.41;5033769;28;19923;-82
2023/05/09 02:30:24;;;;;;;;;;;;;;;14.19;90.18;101589.28;5049968;28;21573;-82
2023/05/09 02:32:50;;;;;;;;;;;;;;;14.15;89.69;101595.63;5043973;28;19917;-82
2023/05/09 02:35:18;;;;;;;;;;;;;;;14.11;89.54;101584.16;5049915;28;19987;-82
2023/05/09 02:37:44;;;;;;;;;;;;;;;14.12;89.47;101577.03;5050623;28;20237;-82
2023/05/09 02:40:10;;;;;;;;;;;;;;;14.12;89.85;101595.69;5038297;28;19928;-83
2023/05/09 02:42:35;;;;;;;;;;;;;;;14.12;89.64;101590.34;5027716;28;19917;-82
2023/05/09 02:45:01;;;;;;;;;;;;;;;14.11;90.47;101589.47;5031684;28;19921;-82
2023/05/09 02:47:26;;;;;;;;;;;;;;;14.08;89.62;101583.38;5045214;28;19925;-83
2023/05/09 02:49:52;;;;;;;;;;;;;;;14.05;89.86;101575.47;5030774;28;19932;-83
2023/05/09 02:52:17;;;;;;;;;;;;;;;14.03;89.85;101572.81;5015560;28;19917;-82
2023/05/09 02:54:43;;;;;;;;;;;;;;;14.02;90.29;101570.19;5048476;28;19928;-82
2023/05/09 02:57:08;;;;;;;;;;;;;;;14.00;90.14;101561.38;5051971;28;19997;-82
2023/05/09 02:59:34;;;;;;;;;;;;;;;13.96;89.85;101557.91;5041847;28;19917;-82
2023/05/09 03:02:01;;;;;;;;;;;;;;;13.97;89.69;101560.53;5044838;28;19912;-82
2023/05/09 03:04:27;;;;;;;;;;;;;;;13.96;90.03;101555.25;5043679;28;19920;-82
2023/05/09 03:06:53;;;;;;;;;;;;;;;13.96;90.92;101550.78;5067137;28;19947;-82
2023/05/09 03:09:19;;;;;;;;;;;;;;;13.92;90.79;101548.22;5050317;28;19952;-82
2023/05/09 03:11:44;;;;;;;;;;;;;;;13.89;90.67;101543.84;5047564;28;19972;-82
2023/05/09 03:14:12;;;;;;;;;;;;;;;13.85;91.41;101546.66;5048738;28;19920;-83
2023/05/09 03:16:37;;;;;;;;;;;;;;;13.82;90.17;101546.72;5050271;28;20362;-82
2023/05/09 03:19:04;;;;;;;;;;;;;;;13.80;91.00;101541.44;5054575;28;19924;-81
2023/05/09 03:21:30;;;;;;;;;;;;;;;13.76;91.63;101539.75;5053720;28;20054;-81
2023/05/09 03:23:56;;;;;;;;;;;;;;;13.75;91.55;101532.69;5010750;28;20027;-81
2023/05/09 03:26:22;;;;;;;;;;;;;;;13.73;91.55;101532.72;5046182;28;20031;-81
2023/05/09 03:28:47;;;;;;;;;;;;;;;13.72;91.25;101536.31;5041480;28;19927;-81
2023/05/09 03:31:13;;;;;;;;;;;;;;;13.72;90.96;101535.41;5049895;28;19956;-81
2023/05/09 03:33:39;;;;;;;;;;;;;;;13.70;92.14;101532.78;5041602;28;19924;-81
2023/05/09 03:36:06;;;;;;;;;;;;;;;13.68;92.52;101531.09;5029554;28;20402;-81
2023/05/09 03:38:32;;;;;;;;;;;;;;;13.66;92.18;101530.25;5051119;28;20280;-81
2023/05/09 03:40:57;;;;;;;;;;;;;;;13.67;92.29;101524.00;5045777;28;19947;-81
2023/05/09 03:43:23;;;;;;;;;;;;;;;13.67;91.81;101530.19;5049256;28;19924;-81
2023/05/09 03:45:49;;;;;;;;;;;;;;;13.68;92.02;101529.28;5054424;28;19921;-81
2023/05/09 03:48:15;;;;;;;;;;;;;;;13.70;91.53;101521.28;5033072;28;19951;-81
2023/05/09 03:50:45;;;;;;;;;;;;;;;13.71;93.54;101523.03;5024027;28;20338;-81
2023/05/09 03:53:15;;;;;;;;;;;;;;;13.68;91.86;101515.97;5045954;28;20806;-80
2023/05/09 03:55:42;;;;;;;;;;;;;;;13.67;91.52;101511.56;5044405;28;20001;-81
2023/05/09 03:58:10;;;;;;;;;;;;;;;13.70;92.15;101511.50;5036690;28;20325;-81
2023/05/09 04:00:39;;;;;;;;;;;;;;;13.68;92.60;101509.78;5036097;28;20095;-81
2023/05/09 04:03:10;;;;;;;;;;;;;;;13.67;91.16;101502.69;5051031;28;19917;-81
2023/05/09 04:05:39;;;;;;;;;;;;;;;13.67;92.76;101500.03;5041587;28;20360;-81
2023/05/09 04:08:09;;;;;;;;;;;;;;;13.66;90.72;101496.50;5036089;28;19940;-81
2023/05/09 04:10:34;;;;;;;;;;;;;;;13.65;91.66;101500.09;5034152;28;19932;-81
2023/05/09 04:13:01;;;;;;;;;;;;;;;13.65;92.03;101494.78;5042066;28;19951;-81
2023/05/09 04:15:27;;;;;;;;;;;;;;;13.66;92.76;101490.31;5013033;28;19980;-81
2023/05/09 04:17:53;;;;;;;;;;;;;;;13.66;93.54;101482.34;5038968;28;20022;-81
2023/05/09 04:20:19;;;;;;;;;;;;;;;13.63;94.21;101480.63;5047962;28;20371;-81
2023/05/09 04:22:44;;;;;;;;;;;;;;;13.61;93.70;101476.25;5031917;28;19923;-81
2023/05/09 04:25:12;;;;;;;;;;;;;;;13.62;93.61;101484.19;5032801;28;19925;-81
2023/05/09 04:27:39;;;;;;;;;;;;;;;13.63;93.51;101482.41;5036133;28;20066;-81
2023/05/09 04:30:05;;;;;;;;;;;;;;;13.64;92.08;101477.03;5054535;28;20054;-81
2023/05/09 04:32:30;;;;;;;;;;;;;;;13.63;92.81;101477.09;5039331;28;19913;-81
2023/05/09 04:34:56;;;;;;;;;;;;;;;13.63;93.11;101485.06;5035640;28;19928;-81
2023/05/09 04:37:26;;;;;;;;;;;;;;;13.64;93.90;101481.50;5034864;28;19921;-81
2023/05/09 04:39:52;;;;;;;;;;;;;;;13.64;94.85;101479.69;5048022;28;19923;-81
2023/05/09 04:42:26;;;;;;;;;;;;;;;13.65;95.05;101478.81;5051262;28;20004;-82
2023/05/09 04:44:52;;;;;;;;;;;;;;;13.68;94.34;101473.41;5042275;28;20007;-82
2023/05/09 04:47:19;;;;;;;;;;;;;;;13.70;93.83;101478.69;5020188;28;19925;-81
2023/05/09 04:49:45;;;;;;;;;;;;;;;13.72;94.08;101469.75;5025962;28;20395;-81
2023/05/09 04:52:10;;;;;;;;;;;;;;;13.75;93.69;101467.00;5020265;28;19966;-82
2023/05/09 04:54:36;;;;;;;;;;;;;;;13.75;95.82;101467.00;5048880;28;20363;-81
2023/05/09 04:57:03;;;;;;;;;;;;;;;13.75;94.01;101460.81;5035293;28;19921;-81
2023/05/09 04:59:29;;;;;;;;;;;;;;;13.79;92.52;101457.16;5051353;28;20358;-82
2023/05/09 05:01:55;;;;;;;;;;;;;;;13.83;93.35;101463.28;5051131;28;20011;-82
2023/05/09 05:04:21;;;;;;;;;;;;;;;13.85;94.68;101456.16;5052072;28;19925;-81
2023/05/09 05:06:47;;;;;;;;;;;;;;;13.87;94.56;101452.53;5023235;28;20300;-82
2023/05/09 05:09:12;;;;;;;;;;;;;;;13.91;94.13;101442.66;5045755;28;19925;-82
2023/05/09 05:11:38;;;;;;;;;;;;;;;13.92;94.89;101439.97;5030805;28;20364;-81
2023/05/09 05:14:03;;;;;;;;;;;;;;;13.95;94.70;101441.66;5042754;28;20024;-80
2023/05/09 05:16:29;;;;;;;;;;;;;;;13.97;94.80;101431.81;5026823;28;19917;-82
2023/05/09 05:18:55;;;;;;;;;;;;;;;13.97;95.71;101427.41;5046355;28;19920;-82
2023/05/09 05:21:21;;;;;;;;;;;;;;;13.98;96.36;101428.28;5035554;28;19916;-82
2023/05/09 05:23:48;;;;;;;;;;;;;;;13.97;95.60;101414.09;5034040;28;20295;-83
2023/05/09 05:26:13;;;;;;;;;;;;;;;13.99;95.04;101416.69;5044046;28;19921;-84
2023/05/09 05:28:39;;;;;;;;;;;;;;;14.04;94.78;101412.13;5024751;28;19928;-81
2023/05/09 05:31:05;;;;;;;;;;;;;;;14.08;93.81;101413.78;5003544;28;19917;-81
2023/05/09 05:33:31;;;;;;;;;;;;;;;14.12;95.82;101411.91;5050751;28;19921;-81
2023/05/09 05:35:57;;;;;;;;;;;;;;;14.14;94.55;101410.06;5035575;28;19921;-81
2023/05/09 05:38:23;;;;;;;;;;;;;;;14.19;95.81;101408.16;5050755;28;19928;-82
2023/05/09 05:40:52;;;;;;;;;;;;;;;14.21;95.13;101403.66;5026743;28;19917;-82
2023/05/09 05:43:19;;;;;;;;;;;;;;;14.27;94.76;101400.84;5037034;28;19928;-82
2023/05/09 05:45:44;;;;;;;;;;;;;;;14.32;92.55;101406.03;5031242;28;19996;-82
2023/05/09 05:48:14;;;;;;;;;;;;;;;14.35;95.18;101397.97;5016689;28;19940;-82
2023/05/09 05:50:40;;;;;;;;;;;;;;;14.35;93.87;101401.50;5048769;28;19921;-82
2023/05/09 05:53:05;;;;;;;;;;;;;;;14.37;94.22;101391.66;5051106;28;19927;-81
2023/05/09 05:55:31;;;;;;;;;;;;;;;14.41;94.99;101389.78;5034325;28;19927;-82
2023/05/09 05:57:57;;;;;;;;;;;;;;;14.46;94.91;101382.50;5012141;28;20443;-82
2023/05/09 06:00:23;;;;;;;;;;;;;;;14.51;93.45;101387.72;5044875;28;19966;-82
2023/05/09 06:02:56;;;;;;;;;;;;;;;14.58;93.46;101389.31;5031888;28;19924;-81
2023/05/09 06:05:31;;;;;;;;;;;;;;;14.65;92.54;101382.88;5047821;28;19940;-82
2023/05/09 06:07:57;;;;;;;;;;;;;;;14.71;93.68;101379.16;5044359;28;19925;-82
2023/05/09 06:10:22;;;;;;;;;;;;;;;14.70;92.87;101386.28;5025895;28;19921;-82
2023/05/09 06:12:47;;;;;;;;;;;;;;;14.72;92.95;101370.25;5047443;28;19925;-82
2023/05/09 06:15:13;;;;;;;;;;;;;;;14.74;92.76;101368.41;5030808;28;19931;-82
2023/05/09 06:17:43;;;;;;;;;;;;;;;14.76;92.22;101366.56;5032460;28;19966;-82
2023/05/09 06:20:11;;;;;;;;;;;;;;;14.77;92.39;101360.31;5048962;28;19912;-81
2023/05/09 06:22:36;;;;;;;;;;;;;;;14.76;92.49;101359.44;5046067;28;19929;-83
2023/05/09 06:25:02;;;;;;;;;;;;;;;14.80;93.01;101360.22;5036931;28;20055;-83
2023/05/09 06:27:27;;;;;;;;;;;;;;;14.81;92.73;101367.28;5031505;28;19917;-83
2023/05/09 06:29:53;;;;;;;;;;;;;;;14.80;92.15;101361.09;5049557;28;19925;-83
2023/05/09 06:32:18;;;;;;;;;;;;;;;14.86;92.26;101367.13;5023369;28;20008;-83
2023/05/09 06:34:44;;;;;;;;;;;;;;;14.90;93.00;101363.47;5052458;28;19913;-83
2023/05/09 06:37:09;;;;;;;;;;;;;;;14.90;93.03;101363.47;5051131;28;20319;-83
2023/05/09 06:39:34;;;;;;;;;;;;;;;14.92;93.20;101361.63;5052216;28;19920;-82
2023/05/09 06:42:00;;;;;;;;;;;;;;;14.95;92.07;101361.53;5051146;28;19920;-83
2023/05/09 06:44:31;;;;;;;;;;;;;;;14.96;91.34;101358.81;5035424;28;19921;-83
2023/05/09 06:46:56;;;;;;;;;;;;;;;14.97;91.73;101359.69;5051446;28;19920;-83
2023/05/09 06:49:22;;;;;;;;;;;;;;;15.00;92.55;101351.59;5060781;28;19924;-82
2023/05/09 06:51:47;;;;;;;;;;;;;;;15.04;92.48;101350.56;5054463;28;19989;-82
2023/05/09 06:54:13;;;;;;;;;;;;;;;15.06;92.33;101346.06;5057732;28;19963;-82
2023/05/09 06:56:38;;;;;;;;;;;;;;;15.06;92.38;101346.06;5040003;28;20299;-81
2023/05/09 06:59:03;;;;;;;;;;;;;;;15.12;91.06;101335.19;5055215;28;20298;-84
2023/05/09 07:01:29;;;;;;;;;;;;;;;15.15;91.41;101331.53;5056195;28;19973;-82
2023/05/09 07:03:54;;;;;;;;;;;;;;;15.21;91.96;101334.03;5057801;28;20372;-82
2023/05/09 07:06:20;;;;;;;;;;;;;;;15.27;92.13;101337.34;5055882;28;19924;-82
2023/05/09 07:08:45;;;;;;;;;;;;;;;15.33;91.25;101332.72;5038161;28;19917;-83
2023/05/09 07:11:11;;;;;;;;;;;;;;;15.38;91.81;101328.09;5054424;28;19932;-82
2023/05/09 07:13:36;;;;;;;;;;;;;;;15.44;91.28;101327.91;5054306;28;19920;-82
2023/05/09 07:16:01;;;;;;;;;;;;;;;15.47;91.31;101319.78;5024714;28;19920;-82
2023/05/09 07:18:27;;;;;;;;;;;;;;;15.51;90.81;101320.56;5054409;28;20308;-82
2023/05/09 07:20:52;;;;;;;;;;;;;;;15.49;90.83;101318.78;5036516;28;19929;-82
2023/05/09 07:23:18;;;;;;;;;;;;;;;15.49;90.81;101321.47;5055455;28;20383;-81
2023/05/09 07:25:44;;;;;;;;;;;;;;;15.47;90.61;101317.09;5053919;28;19925;-82
2023/05/09 07:28:11;;;;;;;;;;;;;;;15.48;90.37;101319.72;5054070;28;19912;-81
2023/05/09 07:30:36;;;;;;;;;;;;;;;15.46;90.47;101315.38;5037405;28;19916;-82
2023/05/09 07:33:02;;;;;;;;;;;;;;;15.44;90.60;101317.22;5037434;28;20265;-82
2023/05/09 07:35:27;;;;;;;;;;;;;;;15.38;90.96;101312.06;5070399;28;19928;-81
2023/05/09 07:37:53;;;;;;;;;;;;;;;15.38;89.93;101317.41;5054282;28;20328;-82
2023/05/09 07:40:18;;;;;;;;;;;;;;;15.34;91.09;101311.31;5036862;28;19921;-82
2023/05/09 07:42:48;;;;;;;;;;;;;;;15.32;91.19;101307.84;5053908;28;19919;-82
2023/05/09 07:45:14;;;;;;;;;;;;;;;15.33;90.22;101308.69;5069927;28;19921;-82
2023/05/09 07:47:39;;;;;;;;;;;;;;;15.27;92.54;101312.44;5055027;28;20279;-82
2023/05/09 07:50:05;;;;;;;;;;;;;;;15.32;91.67;101302.50;5053582;28;19921;-82
2023/05/09 07:52:30;;;;;;;;;;;;;;;15.22;93.12;101309.06;5055224;28;20417;-82
2023/05/09 07:54:56;;;;;;;;;;;;;;;15.16;93.12;101304.81;5035106;28;19917;-81
2023/05/09 07:57:21;;;;;;;;;;;;;;;15.08;93.36;101300.66;5054851;28;19920;-82
2023/05/09 07:59:47;;;;;;;;;;;;;;;14.98;95.66;101300.06;5053489;28;19924;-81
2023/05/09 08:02:12;;;;;;;;;;;;;;;14.93;94.37;101297.56;5054800;28;19952;-81
2023/05/09 08:04:39;;;;;;;;;;;;;;;14.89;93.59;101290.59;5053766;28;19912;-82
2023/05/09 08:07:06;;;;;;;;;;;;;;;14.88;94.97;101293.31;5053361;28;19920;-81
2023/05/09 08:09:31;;;;;;;;;;;;;;;14.88;97.80;101290.63;5054707;28;20432;-82
2023/05/09 08:11:57;;;;;;;;;;;;;;;14.85;97.20;101288.94;5060172;28;20024;-81
2023/05/09 08:14:22;;;;;;;;;;;;;;;14.83;96.53;101285.44;5054523;28;20007;-82
2023/05/09 08:16:48;;;;;;;;;;;;;;;14.82;97.81;101283.72;5054423;28;19963;-81
2023/05/09 08:19:13;;;;;;;;;;;;;;;14.80;98.37;101278.44;5053291;28;19916;-81
2023/05/09 08:21:39;;;;;;;;;;;;;;;14.77;99.64;101270.53;5054426;28;19928;-82
2023/05/09 08:24:06;;;;;;;;;;;;;;;14.81;95.94;101266.84;5053194;28;19985;-82
2023/05/09 08:26:33;;;;;;;;;;;;;;;14.79;97.30;101255.38;5052995;28;19920;-82
2023/05/09 08:28:58;;;;;;;;;;;;;;;14.79;95.53;101257.16;5054172;28;19928;-82
2023/05/09 08:31:23;;;;;;;;;;;;;;;14.77;96.63;101254.53;5054309;28;19928;-81
2023/05/09 08:33:49;;;;;;;;;;;;;;;14.80;96.28;101250.91;5054232;28;19932;-82
2023/05/09 08:36:14;;;;;;;;;;;;;;;14.81;97.68;101256.19;5053366;28;19940;-82
2023/05/09 08:38:40;;;;;;;;;;;;;;;14.81;97.04;101255.28;5054103;28;20418;-82
2023/05/09 08:41:05;;;;;;;;;;;;;;;14.82;97.75;101255.25;5054210;28;19928;-82
2023/05/09 08:43:32;;;;;;;;;;;;;;;14.86;97.05;101249.81;5053936;28;19939;-81
2023/05/09 08:45:59;;;;;;;;;;;;;;;14.89;97.54;101237.28;5052669;28;20295;-81
2023/05/09 08:48:24;;;;;;;;;;;;;;;14.90;96.82;101239.00;5053866;28;19917;-82
2023/05/09 08:50:50;;;;;;;;;;;;;;;14.91;96.88;101239.88;5065334;28;19923;-82
2023/05/09 08:53:15;;;;;;;;;;;;;;;14.93;97.09;101238.91;5050980;28;20310;-82
2023/05/09 08:55:41;;;;;;;;;;;;;;;14.93;95.87;101238.03;5053463;28;19956;-82
2023/05/09 08:58:07;;;;;;;;;;;;;;;14.89;96.58;101236.41;5053803;28;19916;-81
2023/05/09 09:00:33;;;;;;;;;;;;;;;14.87;97.47;101236.44;5053302;28;19917;-81
2023/05/09 09:03:00;;;;;;;;;;;;;;;14.90;95.62;101230.13;5035780;28;19921;-81
2023/05/09 09:05:25;;;;;;;;;;;;;;;14.90;99.70;101231.00;5053443;28;19912;-81
2023/05/09 09:07:51;;;;;;;;;;;;;;;14.93;99.15;101230.03;5053412;28;20342;-81
2023/05/09 09:10:16;;;;;;;;;;;;;;;14.96;97.59;101232.59;5068795;28;19923;-81
2023/05/09 09:12:42;;;;;;;;;;;;;;;14.88;98.71;101235.50;5036062;28;20388;-81
2023/05/09 09:15:09;;;;;;;;;;;;;;;14.84;98.79;101224.09;5052166;28;19928;-81
2023/05/09 09:17:37;;;;;;;;;;;;;;;14.81;99.79;101223.31;5053155;28;19924;-81
2023/05/09 09:20:04;;;;;;;;;;;;;;;14.82;98.29;101220.59;5051949;28;20095;-81
2023/05/09 09:22:33;;;;;;;;;;;;;;;14.79;97.90;101218.03;5051830;28;20028;-81
2023/05/09 09:25:00;;;;;;;;;;;;;;;14.82;98.34;101215.25;5052836;28;20093;-81
2023/05/09 09:27:26;;;;;;;;;;;;;;;14.85;98.19;101214.28;5051879;28;19967;-81
2023/05/09 09:29:51;;;;;;;;;;;;;;;14.88;97.97;101215.97;5051704;28;19944;-81
2023/05/09 09:32:18;;;;;;;;;;;;;;;14.86;98.41;101210.72;5063561;28;19928;-81
2023/05/09 09:34:48;;;;;;;;;;;;;;;14.82;98.97;101212.59;5052709;28;19912;-81
2023/05/09 09:37:22;;;;;;;;;;;;;;;14.83;98.80;101211.66;5053000;28;19939;-81
2023/05/09 09:39:54;;;;;;;;;;;;;;;14.81;98.47;101204.63;5052467;28;19956;-81
2023/05/09 09:42:20;;;;;;;;;;;;;;;14.79;99.76;101202.03;5051191;28;19927;-82
2023/05/09 09:44:50;;;;;;;;;;;;;;;14.76;98.98;101206.59;5052172;28;19917;-81
2023/05/09 09:47:15;;;;;;;;;;;;;;;14.74;98.67;101200.47;5051202;28;19964;-81
2023/05/09 09:49:45;;;;;;;;;;;;;;;14.80;100.00;101202.91;5052763;28;19994;-81
2023/05/09 09:52:10;;;;;;;;;;;;;;;14.84;98.17;101200.09;5050655;28;19917;-81
2023/05/09 09:54:37;;;;;;;;;;;;;;;14.83;99.79;101195.66;5048129;28;19967;-81
2023/05/09 09:57:02;;;;;;;;;;;;;;;14.90;100.00;101198.13;5050707;28;19997;-81
2023/05/09 09:59:28;;;;;;;;;;;;;;;14.88;99.58;101186.66;5067873;28;19955;-82
2023/05/09 10:01:54;;;;;;;;;;;;;;;14.88;100.00;101182.19;5051878;28;19924;-81
2023/05/09 10:04:20;;;;;;;;;;;;;;;14.93;100.00;101177.56;5052098;28;19913;-81
2023/05/09 10:07:11;;;;;;;;;;;;;;;14.89;100.00;101183.06;5033738;28;19927;-81
2023/05/09 10:09:37;;;;;;;;;;;;;;;14.89;99.62;101183.94;5050178;28;19917;-80
2023/05/09 10:12:03;;;;;;;;;;;;;;;14.95;100.00;101172.19;5052142;28;20248;-80
2023/05/09 10:14:30;;;;;;;;;;;;;;;14.95;100.00;101177.53;5051724;28;19945;-80
2023/05/09 10:16:59;;;;;;;;;;;;;;;14.95;100.00;101175.72;5031305;28;19975;-82
2023/05/09 10:19:28;;;;;;;;;;;;;;;15.01;100.00;101169.31;5050141;28;20011;-82
2023/05/09 10:22:13;;;;;;;;;;;;;;;14.96;99.56;101166.81;5050589;28;19921;-81
2023/05/09 10:24:57;;;;;;;;;;;;;;;14.94;100.00;101166.00;5050337;28;20019;-81
2023/05/09 10:27:25;;;;;;;;;;;;;;;14.88;99.48;101163.50;5051713;28;19940;-80
2023/05/09 10:29:56;;;;;;;;;;;;;;;14.89;99.11;101159.94;5051168;28;19921;-81
2023/05/09 10:32:36;;;;;;;;;;;;;;;14.92;100.00;101165.16;5033829;28;19959;-82
2023/05/09 10:35:04;;;;;;;;;;;;;;;14.94;100.00;101154.47;5051562;28;19923;-81
2023/05/09 10:37:30;;;;;;;;;;;;;;;14.95;100.00;101150.84;5033756;28;20287;-82
2023/05/09 10:39:56;;;;;;;;;;;;;;;14.95;100.00;101148.19;5038190;28;19928;-82
2023/05/09 10:42:23;;;;;;;;;;;;;;;14.98;99.80;101137.41;5054794;28;19924;-82
2023/05/09 10:44:50;;;;;;;;;;;;;;;15.01;100.00;101140.84;5059981;28;20012;-80
2023/05/09 10:47:15;;;;;;;;;;;;;;;15.01;100.00;101139.97;5057999;28;20363;-81
2023/05/09 10:49:42;;;;;;;;;;;;;;;15.00;100.00;101125.75;5042849;28;19921;-81
2023/05/09 10:52:07;;;;;;;;;;;;;;;15.00;100.00;101125.75;5050567;28;19923;-81
2023/05/09 10:54:35;;;;;;;;;;;;;;;15.00;100.00;101127.56;5049943;28;20228;-81
2023/05/09 10:57:00;;;;;;;;;;;;;;;14.98;100.00;101119.59;5051766;28;19921;-82
2023/05/09 10:59:34;;;;;;;;;;;;;;;14.98;100.00;101127.59;5050137;28;19925;-82
2023/05/09 11:02:01;;;;;;;;;;;;;;;14.96;100.00;101123.25;5049967;28;19971;-82
2023/05/09 11:04:26;;;;;;;;;;;;;;;14.94;100.00;101125.13;5050060;28;20046;-82
2023/05/09 11:06:52;;;;;;;;;;;;;;;14.94;100.00;101120.66;5049821;28;19929;-82
2023/05/09 11:09:27;;;;;;;;;;;;;;;14.93;100.00;101112.69;5051448;28;19988;-82
2023/05/09 11:11:55;;;;;;;;;;;;;;;14.94;100.00;101122.47;5049708;28;19979;-81
2023/05/09 11:14:27;;;;;;;;;;;;;;;14.97;100.00;101114.34;5066612;28;19982;-81
2023/05/09 11:17:01;;;;;;;;;;;;;;;14.92;100.00;101116.31;5066639;28;19932;-81
2023/05/09 11:19:35;;;;;;;;;;;;;;;14.91;100.00;101111.88;5051009;28;20016;-82
2023/05/09 11:22:04;;;;;;;;;;;;;;;14.96;100.00;101108.13;5049947;28;20434;-83
2023/05/09 11:24:31;;;;;;;;;;;;;;;14.90;100.00;101103.00;5046445;28;19913;-81
2023/05/09 11:26:56;;;;;;;;;;;;;;;14.90;100.00;101103.00;5041331;28;20302;-81
2023/05/09 11:29:25;;;;;;;;;;;;;;;14.92;100.00;101103.84;5050996;28;19916;-82
2023/05/09 11:32:04;;;;;;;;;;;;;;;14.91;100.00;101091.44;5050957;28;19943;-82
2023/05/09 11:34:29;;;;;;;;;;;;;;;14.93;100.00;101097.56;5049815;28;19917;-82
2023/05/09 11:37:05;;;;;;;;;;;;;;;14.89;100.00;101095.09;5050917;28;19924;-81
2023/05/09 11:39:31;;;;;;;;;;;;;;;14.86;100.00;101089.84;5049767;28;20266;-82
2023/05/09 11:41:56;;;;;;;;;;;;;;;14.89;100.00;101095.94;5052743;28;20027;-82
2023/05/09 11:44:23;;;;;;;;;;;;;;;14.80;100.00;101094.47;5054788;28;20356;-81
2023/05/09 11:46:48;;;;;;;;;;;;;;;14.79;100.00;101083.88;5052991;28;19917;-82
2023/05/09 11:49:14;;;;;;;;;;;;;;;14.77;100.00;101078.59;5053191;28;19924;-81
2023/05/09 11:51:40;;;;;;;;;;;;;;;14.75;100.00;101080.44;5059092;28;20062;-81
2023/05/09 11:54:06;;;;;;;;;;;;;;;14.77;100.00;101081.25;5051889;28;20015;-80
2023/05/09 11:56:32;;;;;;;;;;;;;;;14.67;100.00;101074.50;5052903;28;19920;-81
2023/05/09 11:58:57;;;;;;;;;;;;;;;14.63;100.00;101075.53;5068823;28;20388;-80
2023/05/09 12:01:23;;;;;;;;;;;;;;;14.59;100.00;101076.59;5053122;28;20023;-80
2023/05/09 12:03:49;;;;;;;;;;;;;;;14.62;100.00;101068.47;5052691;28;19917;-80
2023/05/09 12:06:18;;;;;;;;;;;;;;;14.61;100.00;101056.94;5052831;28;19924;-80
2023/05/09 12:08:44;;;;;;;;;;;;;;;14.67;100.00;101060.31;5053994;28;19920;-80
2023/05/09 12:11:10;;;;;;;;;;;;;;;14.72;100.00;101061.88;5052704;28;19952;-81
2023/05/09 12:13:43;;;;;;;;;;;;;;;14.73;100.00;101062.75;5052305;28;19921;-81
2023/05/09 12:16:08;;;;;;;;;;;;;;;14.69;100.00;101066.44;5067057;28;19932;-80
2023/05/09 12:18:34;;;;;;;;;;;;;;;14.69;100.00;101055.78;5052712;28;20007;-80
2023/05/09 12:21:00;;;;;;;;;;;;;;;14.72;100.00;101045.91;5035555;28;19955;-80
2023/05/09 12:23:25;;;;;;;;;;;;;;;14.70;100.00;101053.06;5052650;28;20442;-81
2023/05/09 12:25:55;;;;;;;;;;;;;;;14.65;100.00;101049.69;5053620;28;20004;-80
2023/05/09 12:28:22;;;;;;;;;;;;;;;14.68;100.00;101052.25;5052467;28;19955;-80
2023/05/09 12:30:47;;;;;;;;;;;;;;;14.71;100.00;101049.50;5052090;28;19917;-81
2023/05/09 12:33:13;;;;;;;;;;;;;;;14.65;100.00;101046.16;5053667;28;19928;-81